createdAt,value
2019-05-05T00:00:04.843Z,97.0474
2019-05-05T00:01:08.290Z,97.2610
2019-05-05T00:02:14.366Z,97.4487
2019-05-05T00:03:17.313Z,97.6730
2019-05-05T00:04:21.333Z,97.7295
2019-05-05T00:05:24.694Z,98.0179
2019-05-05T00:06:28.308Z,98.2589
2019-05-05T00:07:31.271Z,98.2193
2019-05-05T00:08:35.152Z,97.6593
2019-05-05T00:09:39.285Z,97.6730
2019-05-05T00:10:42.256Z,97.7096
2019-05-05T00:11:46.301Z,97.7798
2019-05-05T00:12:49.323Z,97.7249
2019-05-05T00:13:55.074Z,97.9934
2019-05-05T00:14:57.275Z,97.9034
2019-05-05T00:16:00.339Z,97.9522
2019-05-05T00:17:05.348Z,98.4649
2019-05-05T00:18:08.307Z,98.2361
2019-05-05T00:19:11.275Z,98.1125
2019-05-05T00:20:14.573Z,98.1552
2019-05-05T00:21:18.302Z,98.1216
2019-05-05T00:22:21.362Z,98.1826
2019-05-05T00:23:25.125Z,98.4466
2019-05-05T00:24:29.282Z,98.2589
2019-05-05T00:25:34.195Z,98.1353
2019-05-05T00:26:38.303Z,98.2376
2019-05-05T00:27:41.354Z,98.4512
2019-05-05T00:28:45.271Z,98.5107
2019-05-05T00:29:48.288Z,98.6358
2019-05-05T00:30:51.289Z,98.8861
2019-05-05T00:31:54.747Z,98.8266
2019-05-05T00:32:58.343Z,98.9593
2019-05-05T00:34:02.293Z,99.1653
2019-05-05T00:35:04.388Z,98.9426
2019-05-05T00:36:08.288Z,99.0784
2019-05-05T00:37:10.329Z,98.8952
2019-05-05T00:38:14.291Z,99.0646
2019-05-05T00:39:18.314Z,99.1028
2019-05-05T00:40:21.270Z,99.0784
2019-05-05T00:41:25.505Z,99.1150
2019-05-05T00:42:29.322Z,99.1424
2019-05-05T00:43:34.517Z,98.6999
2019-05-05T00:44:38.303Z,98.7823
2019-05-05T00:45:41.283Z,99.0692
2019-05-05T00:46:45.303Z,99.1073
2019-05-05T00:47:48.294Z,99.3545
2019-05-05T00:48:52.370Z,99.5087
2019-05-05T00:49:56.267Z,99.5285
2019-05-05T00:51:00.285Z,99.5193
2019-05-05T00:52:05.090Z,99.7009
2019-05-05T00:53:08.285Z,99.8291
2019-05-05T00:54:12.328Z,99.7742
2019-05-05T00:55:15.273Z,99.7391
2019-05-05T00:56:19.320Z,99.8016
2019-05-05T00:57:24.224Z,99.7604
2019-05-05T00:58:28.335Z,99.8749
2019-05-05T00:59:31.304Z,99.9954
2019-05-05T01:00:34.933Z,99.9573
2019-05-05T01:01:38.298Z,100.0000
2019-05-05T01:02:41.312Z,100.0000
2019-05-05T01:03:45.312Z,100.0000
2019-05-05T01:04:48.300Z,100.0000
2019-05-05T01:05:52.304Z,100.0000
2019-05-05T01:06:55.270Z,100.0000
2019-05-05T01:07:58.314Z,100.0000
2019-05-05T01:09:04.208Z,100.0000
2019-05-05T01:10:07.283Z,100.0000
2019-05-05T01:11:11.277Z,100.0000
2019-05-05T01:12:14.936Z,100.0000
2019-05-05T01:13:18.304Z,100.0000
2019-05-05T01:14:21.323Z,100.0000
2019-05-05T01:15:25.550Z,100.0000
2019-05-05T01:16:29.295Z,100.0000
2019-05-05T01:17:34.398Z,100.0000
2019-05-05T01:18:38.270Z,100.0000
2019-05-05T01:19:41.327Z,100.0000
2019-05-05T01:20:45.278Z,100.0000
2019-05-05T01:21:48.419Z,100.0000
2019-05-05T01:22:51.273Z,100.0000
2019-05-05T01:23:55.299Z,100.0000
2019-05-05T01:24:58.298Z,100.0000
2019-05-05T01:26:02.278Z,100.0000
2019-05-05T01:27:05.307Z,100.0000
2019-05-05T01:28:09.289Z,100.0000
2019-05-05T01:29:12.319Z,100.0000
2019-05-05T01:30:15.312Z,100.0000
2019-05-05T01:31:18.331Z,100.0000
2019-05-05T01:32:21.298Z,100.0000
2019-05-05T01:33:25.278Z,100.0000
2019-05-05T01:34:28.271Z,100.0000
2019-05-05T01:35:34.028Z,100.0000
2019-05-05T01:36:37.285Z,100.0000
2019-05-05T01:37:44.174Z,100.0000
2019-05-05T01:38:49.392Z,100.0000
2019-05-05T01:39:54.118Z,100.0000
2019-05-05T01:40:58.323Z,100.0000
2019-05-05T01:42:01.309Z,100.0000
2019-05-05T01:43:05.434Z,100.0000
2019-05-05T01:44:09.307Z,100.0000
2019-05-05T01:45:12.286Z,100.0000
2019-05-05T01:46:16.307Z,100.0000
2019-05-05T01:47:19.320Z,100.0000
2019-05-05T01:48:24.782Z,100.0000
2019-05-05T01:49:28.281Z,100.0000
2019-05-05T01:50:32.310Z,100.0000
2019-05-05T01:51:35.624Z,100.0000
2019-05-05T01:52:39.302Z,100.0000
2019-05-05T01:53:44.255Z,100.0000
2019-05-05T01:54:47.273Z,100.0000
2019-05-05T01:55:51.299Z,100.0000
2019-05-05T01:56:55.122Z,100.0000
2019-05-05T01:57:59.309Z,100.0000
2019-05-05T01:59:02.326Z,100.0000
2019-05-05T02:00:05.293Z,100.0000
2019-05-05T02:01:09.278Z,100.0000
2019-05-05T02:02:14.426Z,100.0000
2019-05-05T02:03:18.288Z,100.0000
2019-05-05T02:04:20.314Z,100.0000
2019-05-05T02:05:24.310Z,100.0000
2019-05-05T02:06:27.288Z,100.0000
2019-05-05T02:07:30.315Z,100.0000
2019-05-05T02:08:34.924Z,100.0000
2019-05-05T02:09:38.282Z,100.0000
2019-05-05T02:10:42.290Z,100.0000
2019-05-05T02:11:45.444Z,100.0000
2019-05-05T02:12:49.297Z,100.0000
2019-05-05T02:13:54.419Z,100.0000
2019-05-05T02:14:58.253Z,100.0000
2019-05-05T02:16:04.409Z,100.0000
2019-05-05T02:17:08.292Z,100.0000
2019-05-05T02:18:12.340Z,100.0000
2019-05-05T02:19:15.271Z,100.0000
2019-05-05T02:20:28.849Z,100.0000
2019-05-05T02:21:27.317Z,100.0000
2019-05-05T02:22:30.297Z,100.0000
2019-05-05T02:23:35.144Z,100.0000
2019-05-05T02:24:38.279Z,100.0000
2019-05-05T02:25:42.323Z,100.0000
2019-05-05T02:26:45.618Z,100.0000
2019-05-05T02:27:49.278Z,100.0000
2019-05-05T02:28:54.141Z,100.0000
2019-05-05T02:29:57.277Z,100.0000
2019-05-05T02:31:01.282Z,100.0000
2019-05-05T02:32:06.327Z,100.0000
2019-05-05T02:33:10.303Z,100.0000
2019-05-05T02:34:16.261Z,100.0000
2019-05-05T02:35:20.369Z,100.0000
2019-05-05T02:36:25.734Z,100.0000
2019-05-05T02:37:29.305Z,100.0000
2019-05-05T02:38:35.464Z,100.0000
2019-05-05T02:39:45.871Z,100.0000
2019-05-05T02:40:47.303Z,100.0000
2019-05-05T02:41:50.316Z,100.0000
2019-05-05T02:42:54.995Z,100.0000
2019-05-05T02:43:58.317Z,100.0000
2019-05-05T02:45:01.405Z,100.0000
2019-05-05T02:46:05.593Z,100.0000
2019-05-05T02:47:09.268Z,100.0000
2019-05-05T02:48:15.147Z,100.0000
2019-05-05T02:49:19.306Z,100.0000
2019-05-05T02:50:25.092Z,100.0000
2019-05-05T02:51:27.314Z,100.0000
2019-05-05T02:52:30.265Z,100.0000
2019-05-05T02:53:34.336Z,100.0000
2019-05-05T02:54:37.297Z,100.0000
2019-05-05T02:55:41.352Z,100.0000
2019-05-05T02:56:44.254Z,100.0000
2019-05-05T02:57:48.295Z,100.0000
2019-05-05T02:58:51.282Z,100.0000
2019-05-05T02:59:54.310Z,100.0000
2019-05-05T03:00:58.303Z,100.0000
2019-05-05T03:02:01.305Z,100.0000
2019-05-05T03:03:05.264Z,100.0000
2019-05-05T03:04:08.272Z,100.0000
2019-05-05T03:05:14.169Z,100.0000
2019-05-05T03:06:17.299Z,100.0000
2019-05-05T03:07:20.308Z,100.0000
2019-05-05T03:08:24.327Z,100.0000
2019-05-05T03:09:27.308Z,100.0000
2019-05-05T03:10:31.264Z,100.0000
2019-05-05T03:11:34.443Z,100.0000
2019-05-05T03:12:38.298Z,100.0000
2019-05-05T03:13:41.283Z,100.0000
2019-05-05T03:14:44.655Z,100.0000
2019-05-05T03:15:48.293Z,100.0000
2019-05-05T03:16:51.340Z,100.0000
2019-05-05T03:17:55.271Z,100.0000
2019-05-05T03:18:58.330Z,100.0000
2019-05-05T03:20:04.086Z,100.0000
2019-05-05T03:21:07.540Z,100.0000
2019-05-05T03:22:11.321Z,100.0000
2019-05-05T03:23:15.290Z,100.0000
2019-05-05T03:24:18.285Z,100.0000
2019-05-05T03:25:24.063Z,100.0000
2019-05-05T03:26:26.310Z,100.0000
2019-05-05T03:27:30.319Z,100.0000
2019-05-05T03:28:34.442Z,100.0000
2019-05-05T03:29:37.274Z,100.0000
2019-05-05T03:30:41.301Z,100.0000
2019-05-05T03:31:45.724Z,100.0000
2019-05-05T03:32:49.303Z,100.0000
2019-05-05T03:33:54.951Z,100.0000
2019-05-05T03:34:58.275Z,100.0000
2019-05-05T03:36:03.436Z,100.0000
2019-05-05T03:37:07.279Z,100.0000
2019-05-05T03:38:11.342Z,100.0000
2019-05-05T03:39:14.460Z,100.0000
2019-05-05T03:40:17.302Z,100.0000
2019-05-05T03:41:20.288Z,100.0000
2019-05-05T03:42:24.564Z,100.0000
2019-05-05T03:43:28.352Z,100.0000
2019-05-05T03:44:33.435Z,100.0000
2019-05-05T03:45:39.351Z,100.0000
2019-05-05T03:46:44.284Z,100.0000
2019-05-05T03:47:50.347Z,100.0000
2019-05-05T03:48:54.142Z,100.0000
2019-05-05T03:49:57.290Z,100.0000
2019-05-05T03:51:00.256Z,100.0000
2019-05-05T03:52:04.878Z,100.0000
2019-05-05T03:53:08.293Z,100.0000
2019-05-05T03:54:11.297Z,100.0000
2019-05-05T03:55:15.339Z,100.0000
2019-05-05T03:56:18.278Z,100.0000
2019-05-05T03:57:24.462Z,100.0000
2019-05-05T03:58:28.259Z,100.0000
2019-05-05T03:59:31.335Z,100.0000
2019-05-05T04:00:36.294Z,100.0000
2019-05-05T04:01:39.300Z,100.0000
2019-05-05T04:02:44.540Z,100.0000
2019-05-05T04:03:48.296Z,100.0000
2019-05-05T04:04:54.803Z,100.0000
2019-05-05T04:05:58.296Z,100.0000
2019-05-05T04:07:01.320Z,99.9451
2019-05-05T04:08:05.281Z,99.9222
2019-05-05T04:09:08.312Z,99.9496
2019-05-05T04:10:14.072Z,99.9496
2019-05-05T04:11:17.301Z,99.9252
2019-05-05T04:12:21.287Z,99.8398
2019-05-05T04:13:24.332Z,99.8749
2019-05-05T04:14:27.325Z,99.9435
2019-05-05T04:15:31.329Z,99.8764
2019-05-05T04:16:34.327Z,99.8932
2019-05-05T04:17:38.284Z,99.8947
2019-05-05T04:18:43.473Z,99.8077
2019-05-05T04:19:47.303Z,99.7070
2019-05-05T04:20:50.305Z,99.6841
2019-05-05T04:21:53.710Z,99.3896
2019-05-05T04:22:58.220Z,99.5453
2019-05-05T04:24:01.295Z,99.0875
2019-05-05T04:25:05.348Z,98.7640
2019-05-05T04:26:08.302Z,98.8006
2019-05-05T04:27:14.459Z,98.8586
2019-05-05T04:28:18.290Z,98.9685
2019-05-05T04:29:24.424Z,99.2248
2019-05-05T04:30:28.341Z,98.9059
2019-05-05T04:31:30.256Z,98.8678
2019-05-05T04:32:34.876Z,98.7213
2019-05-05T04:33:38.272Z,98.7778
2019-05-05T04:34:43.923Z,98.8693
2019-05-05T04:35:47.316Z,98.9700
2019-05-05T04:36:50.276Z,98.7778
2019-05-05T04:37:54.481Z,98.8449
2019-05-05T04:38:58.305Z,98.6847
2019-05-05T04:40:04.112Z,98.3932
2019-05-05T04:41:05.981Z,98.4985
2019-05-05T04:42:10.313Z,98.5885
2019-05-05T04:43:14.329Z,98.4985
2019-05-05T04:44:18.062Z,98.3017
2019-05-05T04:45:21.267Z,98.4375
2019-05-05T04:46:24.597Z,98.3337
2019-05-05T04:47:27.285Z,98.3978
2019-05-05T04:48:30.287Z,98.4527
2019-05-05T04:49:34.282Z,98.2910
2019-05-05T04:50:37.288Z,98.4054
2019-05-05T04:51:47.796Z,98.5565
2019-05-05T04:52:48.307Z,98.5931
2019-05-05T04:53:51.292Z,98.6221
2019-05-05T04:54:55.806Z,98.4207
2019-05-05T04:55:58.285Z,98.3688
2019-05-05T04:57:04.370Z,98.0957
2019-05-05T04:58:08.259Z,98.2864
2019-05-05T04:59:11.274Z,98.1369
2019-05-05T05:00:14.302Z,98.1460
2019-05-05T05:01:17.307Z,98.1048
2019-05-05T05:02:23.505Z,98.1277
2019-05-05T05:03:27.296Z,98.4466
2019-05-05T05:04:31.302Z,98.1537
2019-05-05T05:05:34.296Z,97.9858
2019-05-05T05:06:37.289Z,97.9126
2019-05-05T05:07:41.355Z,97.5402
2019-05-05T05:08:44.310Z,97.6745
2019-05-05T05:09:48.324Z,98.0529
2019-05-05T05:10:51.355Z,98.0392
2019-05-05T05:11:55.285Z,97.8607
2019-05-05T05:12:58.314Z,97.7691
2019-05-05T05:14:01.282Z,97.5097
2019-05-05T05:15:05.303Z,96.7453
2019-05-05T05:16:08.290Z,96.6064
2019-05-05T05:17:14.035Z,96.6110
2019-05-05T05:18:17.321Z,96.3821
2019-05-05T05:19:21.298Z,96.6567
2019-05-05T05:20:24.723Z,97.2244
2019-05-05T05:21:28.309Z,97.2396
2019-05-05T05:22:33.438Z,96.9497
2019-05-05T05:23:37.333Z,96.5850
2019-05-05T05:24:41.330Z,96.7941
2019-05-05T05:25:44.323Z,97.0794
2019-05-05T05:26:48.314Z,97.0245
2019-05-05T05:27:53.478Z,97.1756
2019-05-05T05:28:57.341Z,97.1389
2019-05-05T05:30:01.294Z,97.3617
2019-05-05T05:31:04.327Z,96.9146
2019-05-05T05:32:07.317Z,96.4691
2019-05-05T05:33:10.315Z,96.6339
2019-05-05T05:34:14.887Z,97.0321
2019-05-05T05:35:18.262Z,96.7636
2019-05-05T05:36:21.284Z,96.7803
2019-05-05T05:37:25.274Z,96.5209
2019-05-05T05:38:28.262Z,96.4920
2019-05-05T05:39:33.549Z,96.4477
2019-05-05T05:40:37.287Z,96.3195
2019-05-05T05:41:43.456Z,96.6995
2019-05-05T05:42:47.288Z,96.5026
2019-05-05T05:43:50.300Z,96.8185
2019-05-05T05:44:54.354Z,96.7361
2019-05-05T05:45:57.287Z,96.8215
2019-05-05T05:47:03.473Z,96.5026
2019-05-05T05:48:07.274Z,96.4157
2019-05-05T05:49:13.405Z,96.6980
2019-05-05T05:50:17.324Z,96.7132
2019-05-05T05:51:20.301Z,96.6796
2019-05-05T05:52:24.392Z,96.0159
2019-05-05T05:53:27.284Z,96.5118
2019-05-05T05:54:31.308Z,96.7208
2019-05-05T05:55:34.406Z,96.2264
2019-05-05T05:56:38.319Z,96.1990
2019-05-05T05:57:41.316Z,96.6247
2019-05-05T05:58:44.294Z,96.4843
2019-05-05T05:59:48.290Z,96.4889
2019-05-05T06:00:51.326Z,96.4141
2019-05-05T06:02:08.400Z,96.8917
2019-05-05T06:03:03.974Z,96.3790
2019-05-05T06:04:06.282Z,96.1074
2019-05-05T06:05:09.310Z,96.2036
2019-05-05T06:06:10.205Z,96.2264
2019-05-05T06:07:14.419Z,96.2631
2019-05-05T06:08:16.192Z,95.8877
2019-05-05T06:09:20.273Z,95.4223
2019-05-05T06:10:27.056Z,95.7198
2019-05-05T06:11:31.376Z,95.9701
2019-05-05T06:12:34.296Z,94.0581
2019-05-05T06:13:37.292Z,95.1095
2019-05-05T06:14:41.319Z,95.0835
2019-05-05T06:15:44.543Z,95.1644
2019-05-05T06:16:48.341Z,93.1823
2019-05-05T06:17:51.266Z,93.8659
2019-05-05T06:18:55.272Z,94.3648
2019-05-05T06:19:58.276Z,93.6400
2019-05-05T06:21:01.289Z,94.4518
2019-05-05T06:22:05.297Z,93.9757
2019-05-05T06:23:08.312Z,94.2672
2019-05-05T06:24:13.645Z,94.1436
2019-05-05T06:25:17.308Z,93.9559
2019-05-05T06:26:23.876Z,93.9376
2019-05-05T06:27:27.368Z,93.8735
2019-05-05T06:28:30.315Z,93.2525
2019-05-05T06:29:34.619Z,92.4910
2019-05-05T06:30:38.293Z,92.3964
2019-05-05T06:31:41.268Z,92.0989
2019-05-05T06:32:45.780Z,92.8313
2019-05-05T06:33:49.283Z,92.9213
2019-05-05T06:34:53.478Z,92.7260
2019-05-05T06:35:57.304Z,93.8796
2019-05-05T06:37:01.316Z,94.0261
2019-05-05T06:38:04.781Z,93.3013
2019-05-05T06:39:08.321Z,92.3827
2019-05-05T06:40:11.266Z,93.0220
2019-05-05T06:41:15.287Z,93.2464
2019-05-05T06:42:18.260Z,93.0449
2019-05-05T06:43:23.688Z,92.7398
2019-05-05T06:44:28.316Z,93.1594
2019-05-05T06:45:31.293Z,93.6584
2019-05-05T06:46:35.290Z,92.6925
2019-05-05T06:47:38.270Z,93.2006
2019-05-05T06:48:43.827Z,93.2479
2019-05-05T06:49:47.277Z,92.6238
2019-05-05T06:50:50.304Z,92.5963
2019-05-05T06:51:54.788Z,92.2713
2019-05-05T06:52:58.325Z,92.6757
2019-05-05T06:54:04.498Z,93.0404
2019-05-05T06:55:08.274Z,91.9570
2019-05-05T06:56:14.383Z,91.3466
2019-05-05T06:57:18.293Z,91.9844
2019-05-05T06:58:21.394Z,91.6259
2019-05-05T06:59:25.256Z,92.5200
2019-05-05T07:00:28.334Z,92.6650
2019-05-05T07:01:33.811Z,92.8222
2019-05-05T07:02:37.310Z,92.2042
2019-05-05T07:03:41.289Z,93.0816
2019-05-05T07:04:44.535Z,93.3120
2019-05-05T07:05:48.266Z,93.5851
2019-05-05T07:06:56.712Z,92.7657
2019-05-05T07:08:00.288Z,92.6696
2019-05-05T07:09:05.440Z,92.9229
2019-05-05T07:10:09.305Z,92.2713
2019-05-05T07:11:14.552Z,93.4813
2019-05-05T07:12:18.306Z,92.9229
2019-05-05T07:13:21.261Z,93.2021
2019-05-05T07:14:25.314Z,93.3013
2019-05-05T07:15:28.281Z,92.7840
2019-05-05T07:16:34.532Z,93.4661
2019-05-05T07:17:38.265Z,92.9580
2019-05-05T07:18:44.487Z,92.6009
2019-05-05T07:19:47.339Z,93.4707
2019-05-05T07:20:49.589Z,93.5363
2019-05-05T07:21:53.949Z,93.9529
2019-05-05T07:23:02.258Z,93.6873
2019-05-05T07:24:06.348Z,93.8872
2019-05-05T07:25:09.314Z,93.6538
2019-05-05T07:26:14.395Z,93.7148
2019-05-05T07:27:18.276Z,93.5088
2019-05-05T07:28:23.420Z,92.9732
2019-05-05T07:29:27.292Z,92.7977
2019-05-05T07:30:30.367Z,93.3379
2019-05-05T07:31:34.384Z,93.2067
2019-05-05T07:32:37.321Z,93.0739
2019-05-05T07:33:41.313Z,92.0195
2019-05-05T07:34:44.266Z,92.1477
2019-05-05T07:35:56.890Z,92.2087
2019-05-05T07:36:55.268Z,92.9397
2019-05-05T07:37:58.290Z,93.0037
2019-05-05T07:39:03.793Z,93.0556
2019-05-05T07:40:07.289Z,93.5683
2019-05-05T07:41:11.308Z,93.7270
2019-05-05T07:42:14.287Z,93.3806
2019-05-05T07:43:17.253Z,93.2464
2019-05-05T07:44:28.393Z,93.9071
2019-05-05T07:45:29.315Z,92.8023
2019-05-05T07:46:34.644Z,92.4498
2019-05-05T07:47:38.325Z,92.6375
2019-05-05T07:48:44.149Z,93.0419
2019-05-05T07:49:47.304Z,92.9503
2019-05-05T07:51:01.185Z,93.0282
2019-05-05T07:51:58.361Z,93.4630
2019-05-05T07:53:12.294Z,92.9366
2019-05-05T07:54:09.305Z,93.2570
2019-05-05T07:55:14.246Z,92.4559
2019-05-05T07:56:18.289Z,92.6894
2019-05-05T07:57:21.342Z,92.8313
2019-05-05T07:58:24.371Z,92.2530
2019-05-05T07:59:28.274Z,91.5999
2019-05-05T08:00:31.266Z,90.7210
2019-05-05T08:01:35.325Z,90.0099
2019-05-05T08:02:38.300Z,88.2750
2019-05-05T08:03:44.384Z,88.1163
2019-05-05T08:04:47.291Z,89.3111
2019-05-05T08:05:50.301Z,88.8014
2019-05-05T08:06:54.299Z,87.9637
2019-05-05T08:07:57.351Z,87.4418
2019-05-05T08:09:01.302Z,87.7729
2019-05-05T08:10:04.649Z,86.8711
2019-05-05T08:11:08.334Z,86.4714
2019-05-05T08:12:13.539Z,86.3523
2019-05-05T08:13:17.343Z,86.2928
2019-05-05T08:14:21.286Z,86.6087
2019-05-05T08:15:24.295Z,85.4749
2019-05-05T08:16:28.286Z,85.2781
2019-05-05T08:17:31.305Z,85.2781
2019-05-05T08:18:35.353Z,84.0238
2019-05-05T08:19:38.328Z,83.5828
2019-05-05T08:20:41.337Z,83.8270
2019-05-05T08:21:45.297Z,82.1500
2019-05-05T08:22:48.298Z,83.5935
2019-05-05T08:23:54.020Z,83.5737
2019-05-05T08:24:57.313Z,83.0472
2019-05-05T08:26:01.289Z,83.5187
2019-05-05T08:27:04.622Z,83.0945
2019-05-05T08:28:08.305Z,83.1022
2019-05-05T08:29:13.630Z,83.5523
2019-05-05T08:30:17.312Z,83.7293
2019-05-05T08:31:21.295Z,83.1586
2019-05-05T08:32:24.295Z,83.4272
2019-05-05T08:33:28.318Z,82.1363
2019-05-05T08:34:31.317Z,81.0529
2019-05-05T08:35:34.499Z,81.5457
2019-05-05T08:36:39.467Z,82.2568
2019-05-05T08:37:43.648Z,81.0758
2019-05-05T08:38:47.376Z,81.0391
2019-05-05T08:39:50.335Z,80.5722
2019-05-05T08:40:54.473Z,82.6307
2019-05-05T08:41:58.295Z,82.8092
2019-05-05T08:43:01.261Z,82.9618
2019-05-05T08:44:05.326Z,83.6835
2019-05-05T08:45:08.324Z,82.7588
2019-05-05T08:46:11.326Z,82.6185
2019-05-05T08:47:14.319Z,83.8209
2019-05-05T08:48:18.327Z,84.1733
2019-05-05T08:49:21.320Z,82.9435
2019-05-05T08:50:26.986Z,83.8575
2019-05-05T08:51:31.318Z,83.7797
2019-05-05T08:52:34.401Z,83.5157
2019-05-05T08:53:44.719Z,84.1596
2019-05-05T08:54:46.332Z,85.2583
2019-05-05T08:55:50.305Z,83.9780
2019-05-05T08:56:54.933Z,83.9506
2019-05-05T08:57:58.347Z,83.8270
2019-05-05T08:59:03.668Z,83.8499
2019-05-05T09:00:07.359Z,83.3417
2019-05-05T09:01:11.300Z,82.9252
2019-05-05T09:02:15.026Z,83.7842
2019-05-05T09:03:19.297Z,83.1220
2019-05-05T09:04:24.129Z,83.0854
2019-05-05T09:05:28.382Z,82.7726
2019-05-05T09:06:34.146Z,82.2370
2019-05-05T09:07:38.344Z,81.1582
2019-05-05T09:08:44.074Z,81.4221
2019-05-05T09:09:47.299Z,78.9197
2019-05-05T09:10:53.040Z,78.1079
2019-05-05T09:11:58.343Z,76.8765
2019-05-05T09:13:03.592Z,77.4777
2019-05-05T09:14:07.302Z,75.7275
2019-05-05T09:15:10.289Z,73.4920
2019-05-05T09:16:14.588Z,71.5297
2019-05-05T09:17:18.305Z,76.3104
2019-05-05T09:18:24.454Z,75.4803
2019-05-05T09:19:28.300Z,75.5810
2019-05-05T09:20:31.272Z,76.6125
2019-05-05T09:21:34.619Z,76.4111
2019-05-05T09:22:38.309Z,77.2656
2019-05-05T09:23:56.595Z,76.7071
2019-05-05T09:24:50.304Z,75.4528
2019-05-05T09:25:54.342Z,74.8623
2019-05-05T09:26:57.330Z,75.7931
2019-05-05T09:28:03.026Z,75.4726
2019-05-05T09:29:08.322Z,75.8969
2019-05-05T09:30:11.309Z,74.7890
2019-05-05T09:31:15.312Z,75.9533
2019-05-05T09:32:18.355Z,77.2015
2019-05-05T09:33:24.625Z,78.0438
2019-05-05T09:34:28.300Z,77.6287
2019-05-05T09:35:31.321Z,77.8714
2019-05-05T09:36:35.299Z,76.2737
2019-05-05T09:37:38.342Z,77.3297
2019-05-05T09:38:42.286Z,77.0001
2019-05-05T09:39:45.299Z,74.9493
2019-05-05T09:40:49.326Z,76.3836
2019-05-05T09:41:53.610Z,76.0433
2019-05-05T09:42:57.362Z,75.5138
2019-05-05T09:44:01.277Z,74.6914
2019-05-05T09:45:04.805Z,74.0505
2019-05-05T09:46:08.336Z,74.6151
2019-05-05T09:47:13.482Z,74.9432
2019-05-05T09:48:16.337Z,74.5373
2019-05-05T09:49:19.349Z,73.1075
2019-05-05T09:50:23.695Z,71.2627
2019-05-05T09:51:27.294Z,74.1054
2019-05-05T09:52:30.295Z,73.4707
2019-05-05T09:53:34.593Z,74.1878
2019-05-05T09:54:38.322Z,73.8781
2019-05-05T09:55:44.213Z,74.3130
2019-05-05T09:56:47.348Z,75.1934
2019-05-05T09:57:50.277Z,76.6491
2019-05-05T09:58:54.545Z,76.3271
2019-05-05T09:59:58.287Z,75.8969
2019-05-05T10:01:03.952Z,74.4778
2019-05-05T10:02:07.301Z,73.8949
2019-05-05T10:03:11.285Z,71.5892
2019-05-05T10:04:14.358Z,73.6538
2019-05-05T10:05:17.284Z,71.6442
2019-05-05T10:06:21.310Z,72.4941
2019-05-05T10:07:24.426Z,72.8298
2019-05-05T10:08:28.314Z,73.7774
2019-05-05T10:09:31.301Z,72.2240
2019-05-05T10:10:34.347Z,73.0343
2019-05-05T10:11:37.315Z,72.6375
2019-05-05T10:12:40.272Z,72.1737
2019-05-05T10:13:44.373Z,72.2789
2019-05-05T10:14:47.322Z,71.4199
2019-05-05T10:15:51.320Z,68.5817
2019-05-05T10:16:54.303Z,69.0700
2019-05-05T10:17:58.333Z,69.8848
2019-05-05T10:19:01.296Z,68.7968
2019-05-05T10:20:04.356Z,69.8634
2019-05-05T10:21:08.267Z,69.4316
2019-05-05T10:22:11.326Z,70.6416
2019-05-05T10:23:15.324Z,71.3466
2019-05-05T10:24:27.813Z,71.7220
2019-05-05T10:25:25.375Z,71.5343
2019-05-05T10:26:28.315Z,72.2622
2019-05-05T10:27:42.643Z,71.7723
2019-05-05T10:28:39.296Z,72.9610
2019-05-05T10:29:44.105Z,71.8181
2019-05-05T10:30:48.317Z,71.5236
2019-05-05T10:31:50.328Z,71.2871
2019-05-05T10:32:54.633Z,70.5714
2019-05-05T10:33:58.286Z,70.7958
2019-05-05T10:35:01.279Z,69.3400
2019-05-05T10:36:05.339Z,68.5939
2019-05-05T10:37:08.268Z,69.0333
2019-05-05T10:38:14.107Z,68.8975
2019-05-05T10:39:17.304Z,68.4062
2019-05-05T10:40:21.306Z,69.6696
2019-05-05T10:41:24.365Z,67.6005
2019-05-05T10:42:27.285Z,69.1020
2019-05-05T10:43:31.302Z,68.7648
2019-05-05T10:44:34.263Z,70.0679
2019-05-05T10:45:38.331Z,69.9489
2019-05-05T10:46:41.360Z,70.6722
2019-05-05T10:47:45.297Z,71.1299
2019-05-05T10:48:47.339Z,71.4199
2019-05-05T10:49:50.289Z,71.3329
2019-05-05T10:50:54.324Z,71.5068
2019-05-05T10:51:57.301Z,71.3954
2019-05-05T10:53:01.325Z,72.3751
2019-05-05T10:54:04.264Z,73.4295
2019-05-05T10:55:08.309Z,73.0449
2019-05-05T10:56:13.528Z,73.2357
2019-05-05T10:57:18.499Z,73.3867
2019-05-05T10:58:24.259Z,73.4157
2019-05-05T10:59:28.303Z,73.7621
2019-05-05T11:00:33.754Z,74.1619
2019-05-05T11:01:37.332Z,75.1522
2019-05-05T11:02:41.337Z,74.3343
2019-05-05T11:03:44.751Z,74.5724
2019-05-05T11:04:48.305Z,74.0887
2019-05-05T11:05:53.837Z,72.9931
2019-05-05T11:06:57.267Z,73.4386
2019-05-05T11:08:01.324Z,73.1960
2019-05-05T11:09:04.455Z,73.2815
2019-05-05T11:10:08.326Z,74.1848
2019-05-05T11:11:13.563Z,74.3496
2019-05-05T11:12:17.304Z,75.3429
2019-05-05T11:13:21.305Z,72.5948
2019-05-05T11:14:24.317Z,70.6874
2019-05-05T11:15:28.288Z,70.6828
2019-05-05T11:16:31.348Z,70.0603
2019-05-05T11:17:35.305Z,70.6355
2019-05-05T11:18:39.376Z,70.5394
2019-05-05T11:19:44.115Z,70.3883
2019-05-05T11:20:49.303Z,69.6529
2019-05-05T11:21:54.007Z,69.7566
2019-05-05T11:22:56.291Z,69.9214
2019-05-05T11:23:59.353Z,69.6803
2019-05-05T11:25:05.060Z,70.5669
2019-05-05T11:26:08.293Z,70.5867
2019-05-05T11:27:11.303Z,71.2871
2019-05-05T11:28:15.305Z,68.8655
2019-05-05T11:29:18.331Z,70.1473
2019-05-05T11:30:24.916Z,71.0613
2019-05-05T11:31:30.324Z,70.5913
2019-05-05T11:32:34.305Z,69.4957
2019-05-05T11:33:37.362Z,69.8940
2019-05-05T11:34:40.302Z,69.8299
2019-05-05T11:35:44.474Z,69.0608
2019-05-05T11:36:47.294Z,68.3665
2019-05-05T11:37:51.338Z,67.7302
2019-05-05T11:38:54.266Z,69.1066
2019-05-05T11:39:58.354Z,68.3650
2019-05-05T11:41:01.279Z,66.0304
2019-05-05T11:42:04.528Z,65.4917
2019-05-05T11:43:07.407Z,65.8030
2019-05-05T11:44:10.285Z,66.3661
2019-05-05T11:45:14.903Z,65.5512
2019-05-05T11:46:20.298Z,64.9928
2019-05-05T11:47:24.542Z,65.0278
2019-05-05T11:48:27.467Z,64.5106
2019-05-05T11:49:30.303Z,64.4373
2019-05-05T11:50:34.331Z,63.0610
2019-05-05T11:51:37.333Z,63.4821
2019-05-05T11:52:41.318Z,61.0330
2019-05-05T11:53:44.821Z,60.5829
2019-05-05T11:54:48.325Z,60.0717
2019-05-05T11:55:51.311Z,59.0997
2019-05-05T11:56:54.283Z,58.7854
2019-05-05T11:57:58.299Z,56.5133
2019-05-05T11:59:01.312Z,56.9314
2019-05-05T12:00:05.281Z,56.1715
2019-05-05T12:01:08.349Z,56.4126
2019-05-05T12:02:13.976Z,56.9390
2019-05-05T12:03:17.292Z,55.6680
2019-05-05T12:04:20.312Z,56.3775
2019-05-05T12:05:24.450Z,55.8877
2019-05-05T12:06:27.339Z,56.9299
2019-05-05T12:07:31.292Z,56.1486
2019-05-05T12:08:34.623Z,55.6497
2019-05-05T12:09:38.295Z,56.5332
2019-05-05T12:10:41.298Z,58.0484
2019-05-05T12:11:44.345Z,57.5525
2019-05-05T12:12:48.315Z,58.1064
2019-05-05T12:13:51.285Z,58.8907
2019-05-05T12:14:55.313Z,59.1241
2019-05-05T12:15:58.295Z,59.1318
2019-05-05T12:17:04.439Z,57.7447
2019-05-05T12:18:08.334Z,58.0621
2019-05-05T12:19:11.304Z,59.3378
2019-05-05T12:20:15.349Z,59.7650
2019-05-05T12:21:18.313Z,60.2640
2019-05-05T12:22:23.621Z,59.9695
2019-05-05T12:23:27.268Z,58.8312
2019-05-05T12:24:31.301Z,56.1898
2019-05-05T12:25:34.324Z,57.4563
2019-05-05T12:26:37.269Z,54.1756
2019-05-05T12:27:41.361Z,54.2809
2019-05-05T12:28:44.282Z,54.3358
2019-05-05T12:29:48.312Z,54.7463
2019-05-05T12:30:51.278Z,54.8257
2019-05-05T12:31:55.327Z,53.6812
2019-05-05T12:32:58.325Z,52.9809
2019-05-05T12:34:01.316Z,52.8466
2019-05-05T12:35:05.317Z,51.8364
2019-05-05T12:36:08.320Z,50.5669
2019-05-05T12:37:14.155Z,52.2072
2019-05-05T12:38:17.302Z,52.2164
2019-05-05T12:39:21.331Z,50.6035
2019-05-05T12:40:24.687Z,50.8278
2019-05-05T12:41:28.313Z,50.1732
2019-05-05T12:42:32.285Z,50.5440
2019-05-05T12:43:35.304Z,49.5689
2019-05-05T12:44:39.289Z,50.3197
2019-05-05T12:45:43.931Z,50.0954
2019-05-05T12:46:47.322Z,51.2535